Monroe, TN

8:22 PM CDT on July 28, 2014 (GMT -0500)
KTNALLON2 Elev 663 ft | 36.58 °N, 85.34 °W | Change Station

Current weather conditions updated 4 minutes ago

Clear
Clear
73.7 °F
Feels Like 75 °F
N
0.0
Wind Variable Wind from North

Tomorrow is forecast to be Cooler than today.

Today
High -- | Low -- °F
--% Chance of Precip.
Yesterday
High -- | Low -- °F
Precip. -- in
5:44 AM 7:50 PM
Waxing Crescent, 4% visible
Pressure 30.00 in
Visibility 10.0 miles
Clouds Clear
Heat Index 75 °F
Dew Point 65 °F
Humidity 74%
Rainfall 0.00 in
Snow Depth Not available.
UV 0 out of 12
Pollen 4.40 out of 12
Air Quality Not available.
Flu Activity Not available.
METAR KSRB 290115Z AUTO 00000KT 10SM CLR 21/18 A3000 RMK

More Conditions Fewer Conditions

Pressure 30.00 in
Visibility 10.0 miles
Clouds Clear
Heat Index 75 °F
Dew Point 65 °F
Humidity 74%
Rainfall 0.00 in
Snow Depth Not available.
UV 0 out of 12
Pollen 4.40 out of 12
Air Quality Not available.
Flu Activity Not available.
METAR KSRB 290115Z AUTO 00000KT 10SM CLR 21/18 A3000 RMK

More Conditions Fewer Conditions

10-Day Weather Forecast

Almanac

Astronomy

Jul. 28, 2014 Rise Set
Actual Time 5:44 AM CDT 7:50 PM CDT
Civil Twilight 5:15 AM CDT 8:18 PM CDT
Nautical Twilight 4:40 AM CDT 8:53 PM CDT
Astronomical Twilight 4:02 AM CDT 9:31 PM CDT
Moon 7:20 AM CDT (7/28) 8:36 PM CDT (7/28)
Length of Visible Light 15h 03m
Length of Day
14h 06m
Tomorrow will be 1m 38s shorter.
Waxing Crescent, 4% of the Moon is Illuminated
Today
Waxing Crescent
Aug 3
First Quarter
Aug 10
Full
Aug 17
Last Quarter
Aug 25
New

Today's Extremes

State Highs State Lows

Community

WunderPhotos

Upload Photos

1,738,579 photos uploaded!

WunderBlogs® & News

Nearby

Snow Depth

Station Depth Elevation
No new snow has been reported.

Earthquake Activity

City Distance Mag. Time & Date
No recent earthquake activity has been reported nearby.
Minimum magnitude displayed is 2.5.

Coastal Water Temperatures

Place Temperature
No Stations Reporting

Nearby Weather Stations

Station Location Temp. Heat Index Dew Point Humidity Wind Precip. Elev Updated Type
Allons, TN 73.7 °F 75 °F 65 °F 74% North  at  0.0 mph - / hr 663 ft 8:18 PM CDT Normal
On the Square, Celina, TN 70.1 °F - 65 °F 84% NE  at  0.0 mph 0.00 in / hr 574 ft 8:22 PM CDT Rapid Fire
Highlands @ BSF, Jamestown, TN 66.4 °F - 61 °F 84% ESE  at  1.7 mph - / hr 1637 ft 8:07 PM CDT Normal
Northeast Cookeville, Cookeville, TN 70.1 °F 72 °F 62 °F 76% NW  at  1.0 mph 0.00 in / hr 1118 ft 8:22 PM CDT Rapid Fire

Show More Stations Show Fewer Stations